sensor_id;sensor_type;location;lat;lon;timestamp;pressure;altitude;pressure_sealevel;temperature;humidity
70302;BME280;57706;56.326;43.882;2023-02-13T00:00:23;100710.34;;;-4.33;71.15
70302;BME280;57706;56.326;43.882;2023-02-13T00:02:50;100708.31;;;-4.25;71.19
70302;BME280;57706;56.326;43.882;2023-02-13T00:05:16;100706.13;;;-4.34;70.43
70302;BME280;57706;56.326;43.882;2023-02-13T00:07:41;100707.25;;;-4.42;71.60
70302;BME280;57706;56.326;43.882;2023-02-13T00:10:08;100704.84;;;-4.46;71.39
70302;BME280;57706;56.326;43.882;2023-02-13T00:12:34;100700.19;;;-4.36;71.18
70302;BME280;57706;56.326;43.882;2023-02-13T00:15:00;100688.38;;;-4.40;71.08
70302;BME280;57706;56.326;43.882;2023-02-13T00:17:26;100700.44;;;-4.43;71.12
70302;BME280;57706;56.326;43.882;2023-02-13T00:19:52;100705.56;;;-4.43;71.38
70302;BME280;57706;56.326;43.882;2023-02-13T00:22:17;100697.91;;;-4.44;71.35
70302;BME280;57706;56.326;43.882;2023-02-13T00:24:43;100689.91;;;-4.59;71.64
70302;BME280;57706;56.326;43.882;2023-02-13T00:27:09;100696.59;;;-4.54;71.54
70302;BME280;57706;56.326;43.882;2023-02-13T00:29:35;100685.28;;;-4.49;71.90
70302;BME280;57706;56.326;43.882;2023-02-13T00:32:00;100690.03;;;-4.62;71.34
70302;BME280;57706;56.326;43.882;2023-02-13T00:34:26;100696.75;;;-4.81;71.63
70302;BME280;57706;56.326;43.882;2023-02-13T00:36:53;100691.31;;;-4.74;72.32
70302;BME280;57706;56.326;43.882;2023-02-13T00:39:19;100700.63;;;-4.71;72.34
70302;BME280;57706;56.326;43.882;2023-02-13T00:41:47;100701.44;;;-4.71;71.66
70302;BME280;57706;56.326;43.882;2023-02-13T00:44:12;100701.41;;;-4.93;71.86
70302;BME280;57706;56.326;43.882;2023-02-13T00:46:38;100705.19;;;-5.03;72.29
70302;BME280;57706;56.326;43.882;2023-02-13T00:49:04;100702.56;;;-5.02;72.25
70302;BME280;57706;56.326;43.882;2023-02-13T00:51:33;100700.44;;;-5.14;71.88
70302;BME280;57706;56.326;43.882;2023-02-13T00:53:59;100694.94;;;-5.29;72.99
70302;BME280;57706;56.326;43.882;2023-02-13T00:56:26;100689.34;;;-5.15;73.09
70302;BME280;57706;56.326;43.882;2023-02-13T00:58:52;100695.75;;;-5.03;72.57
70302;BME280;57706;56.326;43.882;2023-02-13T01:01:18;100698.88;;;-4.94;72.24
70302;BME280;57706;56.326;43.882;2023-02-13T01:03:43;100697.84;;;-4.89;72.05
70302;BME280;57706;56.326;43.882;2023-02-13T01:06:09;100697.00;;;-4.89;71.48
70302;BME280;57706;56.326;43.882;2023-02-13T01:08:38;100695.44;;;-4.93;71.40
70302;BME280;57706;56.326;43.882;2023-02-13T01:11:05;100699.22;;;-5.04;70.90
70302;BME280;57706;56.326;43.882;2023-02-13T01:13:31;100694.53;;;-5.16;71.39
70302;BME280;57706;56.326;43.882;2023-02-13T01:15:57;100697.06;;;-5.15;71.36
70302;BME280;57706;56.326;43.882;2023-02-13T01:18:23;100698.06;;;-5.20;70.90
70302;BME280;57706;56.326;43.882;2023-02-13T01:21:01;100700.63;;;-5.20;71.50
70302;BME280;57706;56.326;43.882;2023-02-13T01:23:32;100703.88;;;-5.15;71.23
70302;BME280;57706;56.326;43.882;2023-02-13T01:25:59;100691.28;;;-5.21;70.69
70302;BME280;57706;56.326;43.882;2023-02-13T01:28:25;100698.06;;;-5.20;71.61
70302;BME280;57706;56.326;43.882;2023-02-13T01:30:55;100698.31;;;-5.27;71.36
70302;BME280;57706;56.326;43.882;2023-02-13T01:33:22;100698.41;;;-5.30;71.30
70302;BME280;57706;56.326;43.882;2023-02-13T01:35:48;100695.06;;;-5.32;71.07
70302;BME280;57706;56.326;43.882;2023-02-13T01:38:14;100696.31;;;-5.44;71.29
70302;BME280;57706;56.326;43.882;2023-02-13T01:40:48;100703.59;;;-5.58;71.20
70302;BME280;57706;56.326;43.882;2023-02-13T01:43:14;100692.47;;;-5.83;71.40
70302;BME280;57706;56.326;43.882;2023-02-13T01:45:41;100700.50;;;-5.95;71.62
70302;BME280;57706;56.326;43.882;2023-02-13T01:48:20;100695.91;;;-6.11;72.01
70302;BME280;57706;56.326;43.882;2023-02-13T01:53:34;100698.69;;;-6.47;72.50
70302;BME280;57706;56.326;43.882;2023-02-13T01:59:07;100695.69;;;-6.61;73.80
70302;BME280;57706;56.326;43.882;2023-02-13T02:01:35;100705.75;;;-6.55;73.96
70302;BME280;57706;56.326;43.882;2023-02-13T02:04:28;100704.81;;;-6.51;73.42
70302;BME280;57706;56.326;43.882;2023-02-13T02:07:06;100709.66;;;-6.72;73.88
70302;BME280;57706;56.326;43.882;2023-02-13T02:09:37;100718.38;;;-6.79;73.94
70302;BME280;57706;56.326;43.882;2023-02-13T02:12:28;100711.31;;;-6.71;74.00
70302;BME280;57706;56.326;43.882;2023-02-13T02:14:57;100716.97;;;-6.59;74.21
70302;BME280;57706;56.326;43.882;2023-02-13T02:17:31;100713.09;;;-6.73;73.42
70302;BME280;57706;56.326;43.882;2023-02-13T02:36:40;100682.63;;;-7.46;74.77
70302;BME280;57706;56.326;43.882;2023-02-13T02:44:57;100693.78;;;-7.83;76.03
70302;BME280;57706;56.326;43.882;2023-02-13T02:47:43;100693.06;;;-7.90;76.32
70302;BME280;57706;56.326;43.882;2023-02-13T02:55:53;100690.81;;;-8.02;76.68
70302;BME280;57706;56.326;43.882;2023-02-13T02:58:27;100681.63;;;-8.09;76.56
70302;BME280;57706;56.326;43.882;2023-02-13T03:01:16;100675.22;;;-8.27;77.20
70302;BME280;57706;56.326;43.882;2023-02-13T03:04:02;100674.56;;;-8.36;77.23
70302;BME280;57706;56.326;43.882;2023-02-13T03:07:00;100673.41;;;-8.59;78.31
70302;BME280;57706;56.326;43.882;2023-02-13T03:09:33;100668.31;;;-8.59;78.62
70302;BME280;57706;56.326;43.882;2023-02-13T03:12:22;100665.13;;;-8.70;78.37
70302;BME280;57706;56.326;43.882;2023-02-13T03:15:08;100668.63;;;-8.74;79.19
70302;BME280;57706;56.326;43.882;2023-02-13T03:17:34;100664.56;;;-8.85;78.78
70302;BME280;57706;56.326;43.882;2023-02-13T03:20:41;100655.25;;;-8.86;79.34
70302;BME280;57706;56.326;43.882;2023-02-13T03:24:03;100655.44;;;-8.95;79.34
70302;BME280;57706;56.326;43.882;2023-02-13T03:29:24;100645.38;;;-9.01;79.65
70302;BME280;57706;56.326;43.882;2023-02-13T03:37:56;100646.53;;;-9.18;80.02
70302;BME280;57706;56.326;43.882;2023-02-13T03:40:35;100636.59;;;-9.29;79.98
70302;BME280;57706;56.326;43.882;2023-02-13T03:43:26;100641.53;;;-9.22;79.59
70302;BME280;57706;56.326;43.882;2023-02-13T03:46:13;100642.09;;;-9.06;78.71
70302;BME280;57706;56.326;43.882;2023-02-13T03:48:41;100640.75;;;-9.26;79.31
70302;BME280;57706;56.326;43.882;2023-02-13T03:54:08;100657.00;;;-8.88;78.98
70302;BME280;57706;56.326;43.882;2023-02-13T03:56:39;100661.13;;;-8.82;78.24
70302;BME280;57706;56.326;43.882;2023-02-13T03:59:31;100658.06;;;-8.57;77.55
70302;BME280;57706;56.326;43.882;2023-02-13T04:02:16;100664.44;;;-8.78;77.00
70302;BME280;57706;56.326;43.882;2023-02-13T04:04:50;100665.63;;;-8.95;77.99
70302;BME280;57706;56.326;43.882;2023-02-13T04:07:17;100661.28;;;-8.88;77.36
70302;BME280;57706;56.326;43.882;2023-02-13T04:10:01;100663.56;;;-8.77;77.41
70302;BME280;57706;56.326;43.882;2023-02-13T04:15:24;100667.38;;;-8.97;77.07
70302;BME280;57706;56.326;43.882;2023-02-13T04:18:04;100678.72;;;-9.12;76.97
70302;BME280;57706;56.326;43.882;2023-02-13T04:20:32;100675.69;;;-9.33;77.00
70302;BME280;57706;56.326;43.882;2023-02-13T04:23:02;100673.84;;;-9.26;76.79
70302;BME280;57706;56.326;43.882;2023-02-13T04:25:28;100669.19;;;-9.48;77.23
70302;BME280;57706;56.326;43.882;2023-02-13T04:27:54;100678.38;;;-9.41;76.25
70302;BME280;57706;56.326;43.882;2023-02-13T04:30:20;100677.69;;;-9.49;76.77
70302;BME280;57706;56.326;43.882;2023-02-13T04:32:45;100680.81;;;-9.83;76.99
70302;BME280;57706;56.326;43.882;2023-02-13T04:35:11;100679.81;;;-9.76;77.51
70302;BME280;57706;56.326;43.882;2023-02-13T04:37:38;100676.16;;;-9.59;77.35
70302;BME280;57706;56.326;43.882;2023-02-13T04:40:04;100677.06;;;-9.63;76.20
70302;BME280;57706;56.326;43.882;2023-02-13T04:42:30;100677.41;;;-9.85;76.89
70302;BME280;57706;56.326;43.882;2023-02-13T04:44:55;100679.94;;;-9.82;76.33
70302;BME280;57706;56.326;43.882;2023-02-13T04:47:21;100684.72;;;-10.18;77.64
70302;BME280;57706;56.326;43.882;2023-02-13T04:49:47;100679.31;;;-9.97;77.19
70302;BME280;57706;56.326;43.882;2023-02-13T04:52:13;100674.28;;;-10.00;76.30
70302;BME280;57706;56.326;43.882;2023-02-13T04:54:40;100683.53;;;-9.97;76.38
70302;BME280;57706;56.326;43.882;2023-02-13T04:57:06;100676.13;;;-10.10;76.11
70302;BME280;57706;56.326;43.882;2023-02-13T04:59:31;100678.44;;;-9.96;77.57
70302;BME280;57706;56.326;43.882;2023-02-13T05:01:57;100676.03;;;-10.05;76.68
70302;BME280;57706;56.326;43.882;2023-02-13T05:04:24;100674.28;;;-10.00;77.62
70302;BME280;57706;56.326;43.882;2023-02-13T05:06:50;100672.19;;;-9.76;76.56
70302;BME280;57706;56.326;43.882;2023-02-13T05:09:16;100672.84;;;-9.63;76.70
70302;BME280;57706;56.326;43.882;2023-02-13T05:11:42;100675.31;;;-9.58;74.97
70302;BME280;57706;56.326;43.882;2023-02-13T05:14:09;100673.09;;;-9.30;74.34
70302;BME280;57706;56.326;43.882;2023-02-13T05:16:35;100670.25;;;-9.14;73.47
70302;BME280;57706;56.326;43.882;2023-02-13T05:19:01;100671.41;;;-8.87;73.27
70302;BME280;57706;56.326;43.882;2023-02-13T05:21:27;100666.69;;;-8.63;73.06
70302;BME280;57706;56.326;43.882;2023-02-13T05:24:11;100671.28;;;-8.79;71.88
70302;BME280;57706;56.326;43.882;2023-02-13T05:26:37;100672.78;;;-8.70;71.94
70302;BME280;57706;56.326;43.882;2023-02-13T05:29:02;100675.50;;;-8.78;72.37
70302;BME280;57706;56.326;43.882;2023-02-13T05:32:01;100669.00;;;-8.52;71.50
70302;BME280;57706;56.326;43.882;2023-02-13T05:34:28;100665.69;;;-8.19;70.49
70302;BME280;57706;56.326;43.882;2023-02-13T05:36:54;100655.84;;;-8.35;70.31
70302;BME280;57706;56.326;43.882;2023-02-13T05:39:20;100649.78;;;-8.29;69.98
70302;BME280;57706;56.326;43.882;2023-02-13T05:41:46;100648.00;;;-8.25;70.91
70302;BME280;57706;56.326;43.882;2023-02-13T05:44:31;100647.03;;;-7.85;69.50
70302;BME280;57706;56.326;43.882;2023-02-13T05:46:57;100637.66;;;-7.50;69.45
70302;BME280;57706;56.326;43.882;2023-02-13T05:49:23;100636.38;;;-7.33;67.89
70302;BME280;57706;56.326;43.882;2023-02-13T05:51:49;100641.41;;;-7.00;67.76
70302;BME280;57706;56.326;43.882;2023-02-13T05:54:17;100639.97;;;-7.10;67.29
70302;BME280;57706;56.326;43.882;2023-02-13T05:56:43;100644.56;;;-6.61;66.76
70302;BME280;57706;56.326;43.882;2023-02-13T05:59:08;100631.59;;;-6.27;65.65
70302;BME280;57706;56.326;43.882;2023-02-13T06:01:34;100634.91;;;-5.72;63.80
70302;BME280;57706;56.326;43.882;2023-02-13T06:04:00;100637.22;;;-5.39;62.46
70302;BME280;57706;56.326;43.882;2023-02-13T06:06:26;100630.66;;;-4.75;62.55
70302;BME280;57706;56.326;43.882;2023-02-13T06:08:52;100626.59;;;-4.58;60.14
70302;BME280;57706;56.326;43.882;2023-02-13T06:11:18;100633.41;;;-4.57;58.57
70302;BME280;57706;56.326;43.882;2023-02-13T06:13:44;100635.44;;;-5.37;60.07
70302;BME280;57706;56.326;43.882;2023-02-13T06:16:11;100636.66;;;-5.47;60.43
70302;BME280;57706;56.326;43.882;2023-02-13T06:18:37;100625.31;;;-5.91;61.32
70302;BME280;57706;56.326;43.882;2023-02-13T06:21:04;100626.25;;;-5.68;62.52
70302;BME280;57706;56.326;43.882;2023-02-13T06:23:30;100626.47;;;-5.74;61.07
70302;BME280;57706;56.326;43.882;2023-02-13T06:26:04;100621.47;;;-6.58;62.90
70302;BME280;57706;56.326;43.882;2023-02-13T06:28:30;100614.59;;;-6.86;64.15
70302;BME280;57706;56.326;43.882;2023-02-13T06:30:55;100609.66;;;-7.21;66.00
70302;BME280;57706;56.326;43.882;2023-02-13T06:33:21;100592.66;;;-6.37;63.54
70302;BME280;57706;56.326;43.882;2023-02-13T06:35:47;100602.28;;;-7.02;65.66
70302;BME280;57706;56.326;43.882;2023-02-13T06:38:13;100605.09;;;-7.11;67.13
70302;BME280;57706;56.326;43.882;2023-02-13T06:40:39;100604.81;;;-7.02;67.05
70302;BME280;57706;56.326;43.882;2023-02-13T06:43:04;100598.13;;;-6.76;65.65
70302;BME280;57706;56.326;43.882;2023-02-13T06:45:30;100584.31;;;-6.42;64.61
70302;BME280;57706;56.326;43.882;2023-02-13T06:47:56;100580.88;;;-6.69;65.52
70302;BME280;57706;56.326;43.882;2023-02-13T06:50:22;100582.63;;;-6.43;65.74
70302;BME280;57706;56.326;43.882;2023-02-13T06:52:49;100579.25;;;-6.72;65.76
70302;BME280;57706;56.326;43.882;2023-02-13T06:55:16;100585.25;;;-7.65;67.94
70302;BME280;57706;56.326;43.882;2023-02-13T06:57:43;100584.03;;;-7.50;69.25
70302;BME280;57706;56.326;43.882;2023-02-13T07:00:10;100578.31;;;-7.28;69.36
70302;BME280;57706;56.326;43.882;2023-02-13T07:02:39;100570.66;;;-6.69;68.24
70302;BME280;57706;56.326;43.882;2023-02-13T07:05:05;100584.22;;;-6.40;66.03
70302;BME280;57706;56.326;43.882;2023-02-13T07:07:33;100581.44;;;-6.88;67.52
70302;BME280;57706;56.326;43.882;2023-02-13T07:10:00;100568.44;;;-6.53;67.17
70302;BME280;57706;56.326;43.882;2023-02-13T07:12:26;100564.91;;;-6.22;65.71
70302;BME280;57706;56.326;43.882;2023-02-13T07:14:51;100568.81;;;-5.37;63.41
70302;BME280;57706;56.326;43.882;2023-02-13T07:17:17;100563.63;;;-5.59;62.21
70302;BME280;57706;56.326;43.882;2023-02-13T07:19:43;100551.25;;;-4.78;59.99
70302;BME280;57706;56.326;43.882;2023-02-13T07:22:08;100552.19;;;-4.36;59.82
70302;BME280;57706;56.326;43.882;2023-02-13T07:24:34;100551.84;;;-4.28;59.47
70302;BME280;57706;56.326;43.882;2023-02-13T07:27:03;100556.88;;;-4.04;57.36
70302;BME280;57706;56.326;43.882;2023-02-13T07:29:29;100552.81;;;-4.74;59.30
70302;BME280;57706;56.326;43.882;2023-02-13T07:31:55;100548.44;;;-4.72;60.37
70302;BME280;57706;56.326;43.882;2023-02-13T07:34:21;100551.84;;;-4.71;59.94
70302;BME280;57706;56.326;43.882;2023-02-13T07:36:46;100553.41;;;-4.89;60.35
70302;BME280;57706;56.326;43.882;2023-02-13T07:39:12;100548.53;;;-5.19;60.89
70302;BME280;57706;56.326;43.882;2023-02-13T07:41:38;100543.72;;;-5.05;60.89
70302;BME280;57706;56.326;43.882;2023-02-13T07:44:06;100540.06;;;-5.21;61.04
70302;BME280;57706;56.326;43.882;2023-02-13T07:46:50;100544.00;;;-5.35;61.61
70302;BME280;57706;56.326;43.882;2023-02-13T07:49:16;100537.53;;;-4.99;62.04
70302;BME280;57706;56.326;43.882;2023-02-13T07:51:41;100532.28;;;-4.74;60.88
70302;BME280;57706;56.326;43.882;2023-02-13T07:54:07;100536.75;;;-4.79;60.13
70302;BME280;57706;56.326;43.882;2023-02-13T07:56:33;100539.94;;;-4.08;60.40
70302;BME280;57706;56.326;43.882;2023-02-13T07:58:59;100534.28;;;-3.75;57.86
70302;BME280;57706;56.326;43.882;2023-02-13T08:01:24;100539.47;;;-2.81;56.15
70302;BME280;57706;56.326;43.882;2023-02-13T08:03:51;100535.53;;;-2.88;55.71
70302;BME280;57706;56.326;43.882;2023-02-13T08:06:18;100523.69;;;-3.88;57.40
70302;BME280;57706;56.326;43.882;2023-02-13T08:08:44;100525.81;;;-3.39;56.16
70302;BME280;57706;56.326;43.882;2023-02-13T08:11:27;100520.41;;;-2.94;55.59
70302;BME280;57706;56.326;43.882;2023-02-13T08:14:14;100508.72;;;-2.47;54.81
70302;BME280;57706;56.326;43.882;2023-02-13T08:16:40;100506.16;;;-2.65;55.26
70302;BME280;57706;56.326;43.882;2023-02-13T08:19:06;100514.13;;;-4.05;57.48
70302;BME280;57706;56.326;43.882;2023-02-13T08:21:31;100491.31;;;-3.52;57.18
70302;BME280;57706;56.326;43.882;2023-02-13T08:23:58;100493.78;;;-2.75;55.35
70302;BME280;57706;56.326;43.882;2023-02-13T08:26:24;100487.06;;;-2.43;53.76
70302;BME280;57706;56.326;43.882;2023-02-13T08:28:49;100473.94;;;-3.28;55.89
70302;BME280;57706;56.326;43.882;2023-02-13T08:31:15;100475.53;;;-3.44;56.86
70302;BME280;57706;56.326;43.882;2023-02-13T08:33:41;100478.09;;;-3.64;56.95
70302;BME280;57706;56.326;43.882;2023-02-13T08:36:07;100469.19;;;-4.36;59.31
70302;BME280;57706;56.326;43.882;2023-02-13T08:38:33;100465.63;;;-4.32;59.88
70302;BME280;57706;56.326;43.882;2023-02-13T08:40:59;100467.03;;;-4.25;59.52
70302;BME280;57706;56.326;43.882;2023-02-13T08:43:25;100461.81;;;-4.86;61.15
70302;BME280;57706;56.326;43.882;2023-02-13T08:45:51;100457.63;;;-4.88;61.09
70302;BME280;57706;56.326;43.882;2023-02-13T08:48:17;100443.81;;;-5.06;61.98
70302;BME280;57706;56.326;43.882;2023-02-13T08:50:42;100438.53;;;-4.81;61.80
70302;BME280;57706;56.326;43.882;2023-02-13T08:53:08;100434.50;;;-4.66;61.67
70302;BME280;57706;56.326;43.882;2023-02-13T08:55:34;100425.34;;;-5.15;62.98
70302;BME280;57706;56.326;43.882;2023-02-13T08:58:03;100432.50;;;-5.01;62.22
70302;BME280;57706;56.326;43.882;2023-02-13T09:00:29;100425.88;;;-3.83;59.71
70302;BME280;57706;56.326;43.882;2023-02-13T09:03:02;100427.09;;;-1.77;54.64
70302;BME280;57706;56.326;43.882;2023-02-13T09:05:29;100414.13;;;-0.97;51.31
70302;BME280;57706;56.326;43.882;2023-02-13T09:08:01;100413.84;;;-1.23;51.91
70302;BME280;57706;56.326;43.882;2023-02-13T09:10:28;100414.13;;;-1.44;53.22
70302;BME280;57706;56.326;43.882;2023-02-13T09:12:55;100412.44;;;-1.93;52.97
70302;BME280;57706;56.326;43.882;2023-02-13T09:15:20;100405.50;;;-1.12;51.76
70302;BME280;57706;56.326;43.882;2023-02-13T09:17:46;100400.91;;;-0.17;49.57
70302;BME280;57706;56.326;43.882;2023-02-13T09:20:13;100388.00;;;-0.17;50.01
70302;BME280;57706;56.326;43.882;2023-02-13T09:22:39;100391.06;;;0.60;48.75
70302;BME280;57706;56.326;43.882;2023-02-13T09:25:06;100380.28;;;0.11;48.43
70302;BME280;57706;56.326;43.882;2023-02-13T09:27:32;100383.19;;;0.34;48.72
70302;BME280;57706;56.326;43.882;2023-02-13T09:29:59;100388.91;;;2.11;43.90
70302;BME280;57706;56.326;43.882;2023-02-13T09:32:25;100394.88;;;1.48;44.11
70302;BME280;57706;56.326;43.882;2023-02-13T09:34:51;100374.97;;;-0.15;48.19
70302;BME280;57706;56.326;43.882;2023-02-13T09:37:17;100355.44;;;-0.93;49.74
70302;BME280;57706;56.326;43.882;2023-02-13T09:39:43;100365.72;;;-0.63;49.99
70302;BME280;57706;56.326;43.882;2023-02-13T09:42:30;100355.50;;;1.17;45.91
70302;BME280;57706;56.326;43.882;2023-02-13T09:45:02;100352.38;;;-0.55;48.91
70302;BME280;57706;56.326;43.882;2023-02-13T09:47:31;100343.41;;;0.64;47.44
70302;BME280;57706;56.326;43.882;2023-02-13T09:50:20;100333.44;;;-0.85;49.53
70302;BME280;57706;56.326;43.882;2023-02-13T09:52:48;100335.84;;;-0.67;49.46
70302;BME280;57706;56.326;43.882;2023-02-13T09:57:50;100316.56;;;-1.21;50.93
70302;BME280;57706;56.326;43.882;2023-02-13T10:00:25;100324.72;;;-2.73;54.74
70302;BME280;57706;56.326;43.882;2023-02-13T10:13:49;100294.69;;;-0.12;48.05
70302;BME280;57706;56.326;43.882;2023-02-13T10:21:54;100284.47;;;0.14;48.47
70302;BME280;57706;56.326;43.882;2023-02-13T10:24:30;100294.50;;;-0.96;50.51
70302;BME280;57706;56.326;43.882;2023-02-13T10:27:03;100291.69;;;0.09;48.38
70302;BME280;57706;56.326;43.882;2023-02-13T10:29:43;100285.97;;;-0.53;49.34
70302;BME280;57706;56.326;43.882;2023-02-13T10:32:40;100273.63;;;0.62;47.40
70302;BME280;57706;56.326;43.882;2023-02-13T10:35:28;100279.69;;;1.02;46.43
70302;BME280;57706;56.326;43.882;2023-02-13T10:37:56;100265.50;;;1.20;45.99
70302;BME280;57706;56.326;43.882;2023-02-13T10:40:30;100260.22;;;0.96;47.00
70302;BME280;57706;56.326;43.882;2023-02-13T10:43:16;100245.28;;;0.61;47.03
70302;BME280;57706;56.326;43.882;2023-02-13T10:51:04;100250.66;;;-0.52;49.50
70302;BME280;57706;56.326;43.882;2023-02-13T11:02:23;100230.63;;;-2.45;54.18
70302;BME280;57706;56.326;43.882;2023-02-13T11:05:18;100221.50;;;-2.51;54.96
70302;BME280;57706;56.326;43.882;2023-02-13T11:07:45;100227.97;;;-2.12;53.87
70302;BME280;57706;56.326;43.882;2023-02-13T11:10:20;100225.13;;;-2.07;54.81
70302;BME280;57706;56.326;43.882;2023-02-13T11:12:47;100210.81;;;-1.97;54.67
70302;BME280;57706;56.326;43.882;2023-02-13T11:15:25;100203.31;;;-2.64;56.42
70302;BME280;57706;56.326;43.882;2023-02-13T11:18:18;100200.75;;;-3.32;57.46
70302;BME280;57706;56.326;43.882;2023-02-13T11:20:45;100187.28;;;-3.37;58.22
70302;BME280;57706;56.326;43.882;2023-02-13T11:28:44;100185.97;;;-2.77;56.96
70302;BME280;57706;56.326;43.882;2023-02-13T11:33:38;100171.81;;;-2.85;56.87
70302;BME280;57706;56.326;43.882;2023-02-13T11:36:07;100174.16;;;-3.48;58.75
70302;BME280;57706;56.326;43.882;2023-02-13T11:38:33;100166.59;;;-3.34;58.64
70302;BME280;57706;56.326;43.882;2023-02-13T11:41:10;100170.81;;;-3.33;59.56
70302;BME280;57706;56.326;43.882;2023-02-13T11:43:49;100163.66;;;-3.10;58.67
70302;BME280;57706;56.326;43.882;2023-02-13T11:46:23;100161.41;;;-3.16;58.85
70302;BME280;57706;56.326;43.882;2023-02-13T11:49:01;100156.31;;;-3.34;58.59
70302;BME280;57706;56.326;43.882;2023-02-13T11:51:54;100159.91;;;-3.89;60.04
70302;BME280;57706;56.326;43.882;2023-02-13T11:56:49;100160.06;;;-3.57;60.76
70302;BME280;57706;56.326;43.882;2023-02-13T11:59:16;100151.47;;;-3.40;59.86
70302;BME280;57706;56.326;43.882;2023-02-13T12:01:42;100146.03;;;-3.34;58.75
70302;BME280;57706;56.326;43.882;2023-02-13T12:04:32;100137.53;;;-3.18;58.89
70302;BME280;57706;56.326;43.882;2023-02-13T12:07:03;100138.44;;;-3.19;58.53
70302;BME280;57706;56.326;43.882;2023-02-13T12:09:37;100132.69;;;-3.24;58.80
70302;BME280;57706;56.326;43.882;2023-02-13T12:12:04;100138.63;;;-3.06;58.55
70302;BME280;57706;56.326;43.882;2023-02-13T12:14:39;100139.13;;;-3.33;58.25
70302;BME280;57706;56.326;43.882;2023-02-13T12:17:15;100145.66;;;-3.43;59.11
70302;BME280;57706;56.326;43.882;2023-02-13T12:19:44;100136.44;;;-3.14;58.58
70302;BME280;57706;56.326;43.882;2023-02-13T12:25:03;100138.44;;;-3.19;57.74
70302;BME280;57706;56.326;43.882;2023-02-13T12:31:07;100136.56;;;-3.33;59.29
70302;BME280;57706;56.326;43.882;2023-02-13T12:36:20;100119.88;;;-3.42;58.59
70302;BME280;57706;56.326;43.882;2023-02-13T12:39:37;100121.06;;;-3.65;59.74
70302;BME280;57706;56.326;43.882;2023-02-13T12:45:37;100109.66;;;-3.60;59.61
70302;BME280;57706;56.326;43.882;2023-02-13T12:56:22;100098.47;;;-3.42;59.38
70302;BME280;57706;56.326;43.882;2023-02-13T12:59:00;100103.28;;;-3.70;60.10
70302;BME280;57706;56.326;43.882;2023-02-13T13:01:49;100106.03;;;-3.91;61.25
70302;BME280;57706;56.326;43.882;2023-02-13T13:04:35;100097.09;;;-3.66;61.05
70302;BME280;57706;56.326;43.882;2023-02-13T13:10:11;100105.25;;;-3.57;60.34
70302;BME280;57706;56.326;43.882;2023-02-13T13:13:24;100099.03;;;-3.53;59.65
70302;BME280;57706;56.326;43.882;2023-02-13T13:21:51;100089.56;;;-3.69;61.21
70302;BME280;57706;56.326;43.882;2023-02-13T13:27:19;100070.03;;;-4.07;63.22
70302;BME280;57706;56.326;43.882;2023-02-13T13:30:00;100078.09;;;-4.15;63.31
70302;BME280;57706;56.326;43.882;2023-02-13T13:32:29;100079.31;;;-4.04;63.37
70302;BME280;57706;56.326;43.882;2023-02-13T13:34:57;100084.53;;;-4.06;63.60
70302;BME280;57706;56.326;43.882;2023-02-13T13:51:00;100063.22;;;-4.08;65.52
70302;BME280;57706;56.326;43.882;2023-02-13T13:53:26;100062.19;;;-4.21;66.01
70302;BME280;57706;56.326;43.882;2023-02-13T13:58:42;100061.03;;;-4.16;65.54
70302;BME280;57706;56.326;43.882;2023-02-13T14:01:23;100043.13;;;-4.17;66.09
70302;BME280;57706;56.326;43.882;2023-02-13T14:03:54;100031.28;;;-4.20;66.71
70302;BME280;57706;56.326;43.882;2023-02-13T14:08:58;100024.63;;;-3.89;66.75
70302;BME280;57706;56.326;43.882;2023-02-13T14:16:57;100023.75;;;-4.23;66.84
70302;BME280;57706;56.326;43.882;2023-02-13T14:19:36;100007.28;;;-4.01;65.84
70302;BME280;57706;56.326;43.882;2023-02-13T14:24:51;100020.22;;;-3.87;65.93
70302;BME280;57706;56.326;43.882;2023-02-13T14:27:23;100008.63;;;-3.94;65.83
70302;BME280;57706;56.326;43.882;2023-02-13T14:29:49;100010.44;;;-3.96;66.75
70302;BME280;57706;56.326;43.882;2023-02-13T14:32:28;100008.97;;;-3.84;66.12
70302;BME280;57706;56.326;43.882;2023-02-13T14:34:59;100021.09;;;-3.70;65.41
70302;BME280;57706;56.326;43.882;2023-02-13T14:42:56;100007.09;;;-3.98;66.15
70302;BME280;57706;56.326;43.882;2023-02-13T14:45:27;99995.34;;;-4.02;66.94
70302;BME280;57706;56.326;43.882;2023-02-13T14:47:55;99994.56;;;-4.04;68.00
70302;BME280;57706;56.326;43.882;2023-02-13T14:50:28;99998.97;;;-4.06;67.76
70302;BME280;57706;56.326;43.882;2023-02-13T14:52:57;99991.66;;;-3.80;67.27
70302;BME280;57706;56.326;43.882;2023-02-13T14:55:35;99994.88;;;-3.93;66.76
70302;BME280;57706;56.326;43.882;2023-02-13T14:58:09;99979.94;;;-4.20;67.95
70302;BME280;57706;56.326;43.882;2023-02-13T15:00:54;99979.75;;;-4.15;68.30
70302;BME280;57706;56.326;43.882;2023-02-13T15:03:35;99975.78;;;-4.05;68.86
70302;BME280;57706;56.326;43.882;2023-02-13T15:06:05;99964.41;;;-4.17;68.71
70302;BME280;57706;56.326;43.882;2023-02-13T15:08:41;99959.25;;;-3.99;68.92
70302;BME280;57706;56.326;43.882;2023-02-13T15:11:09;99956.53;;;-4.13;68.60
70302;BME280;57706;56.326;43.882;2023-02-13T15:14:17;99957.91;;;-4.06;67.79
70302;BME280;57706;56.326;43.882;2023-02-13T15:16:47;99962.72;;;-4.00;69.17
70302;BME280;57706;56.326;43.882;2023-02-13T15:19:16;99956.78;;;-4.18;68.53
70302;BME280;57706;56.326;43.882;2023-02-13T15:21:51;99952.47;;;-3.84;68.20
70302;BME280;57706;56.326;43.882;2023-02-13T15:24:19;99947.16;;;-3.97;67.69
70302;BME280;57706;56.326;43.882;2023-02-13T15:26:53;99951.78;;;-4.04;67.44
70302;BME280;57706;56.326;43.882;2023-02-13T15:29:20;99939.91;;;-4.06;68.84
70302;BME280;57706;56.326;43.882;2023-02-13T15:31:45;99939.06;;;-4.40;69.25
70302;BME280;57706;56.326;43.882;2023-02-13T15:36:52;99935.69;;;-4.07;68.61
70302;BME280;57706;56.326;43.882;2023-02-13T15:39:26;99943.13;;;-4.19;69.65